sensor_id;sensor_type;location;lat;lon;timestamp;P1;durP1;ratioP1;P2;durP2;ratioP2
7683;SDS011;3884;48.616;12.872;2022-08-07T00:01:55;6.47;;;5.90;;
7683;SDS011;3884;48.616;12.872;2022-08-07T00:04:22;5.83;;;5.23;;
7683;SDS011;3884;48.616;12.872;2022-08-07T00:06:50;5.27;;;4.87;;
7683;SDS011;3884;48.616;12.872;2022-08-07T00:09:18;4.70;;;4.30;;
7683;SDS011;3884;48.616;12.872;2022-08-07T00:11:45;3.67;;;3.33;;
7683;SDS011;3884;48.616;12.872;2022-08-07T00:14:11;5.37;;;4.60;;
7683;SDS011;3884;48.616;12.872;2022-08-07T00:16:38;5.90;;;3.90;;
7683;SDS011;3884;48.616;12.872;2022-08-07T00:19:05;4.07;;;3.60;;
7683;SDS011;3884;48.616;12.872;2022-08-07T00:21:32;3.70;;;3.30;;
7683;SDS011;3884;48.616;12.872;2022-08-07T00:24:00;3.43;;;3.03;;
7683;SDS011;3884;48.616;12.872;2022-08-07T00:26:27;3.30;;;3.00;;
7683;SDS011;3884;48.616;12.872;2022-08-07T00:28:54;5.47;;;3.10;;
7683;SDS011;3884;48.616;12.872;2022-08-07T00:31:21;3.53;;;2.70;;
7683;SDS011;3884;48.616;12.872;2022-08-07T00:33:50;3.30;;;2.70;;
7683;SDS011;3884;48.616;12.872;2022-08-07T00:36:16;3.00;;;2.70;;
7683;SDS011;3884;48.616;12.872;2022-08-07T00:38:43;2.80;;;2.60;;
7683;SDS011;3884;48.616;12.872;2022-08-07T00:41:12;2.63;;;2.20;;
7683;SDS011;3884;48.616;12.872;2022-08-07T00:43:39;2.57;;;2.37;;
7683;SDS011;3884;48.616;12.872;2022-08-07T00:46:06;2.67;;;2.43;;
7683;SDS011;3884;48.616;12.872;2022-08-07T00:48:33;2.63;;;2.43;;
7683;SDS011;3884;48.616;12.872;2022-08-07T00:51:00;3.63;;;2.60;;
7683;SDS011;3884;48.616;12.872;2022-08-07T00:53:27;3.37;;;2.50;;
7683;SDS011;3884;48.616;12.872;2022-08-07T00:55:54;2.40;;;2.10;;
7683;SDS011;3884;48.616;12.872;2022-08-07T00:58:23;2.40;;;2.20;;
7683;SDS011;3884;48.616;12.872;2022-08-07T01:00:50;3.40;;;2.30;;
7683;SDS011;3884;48.616;12.872;2022-08-07T01:03:17;4.50;;;2.60;;
7683;SDS011;3884;48.616;12.872;2022-08-07T01:05:44;2.50;;;2.30;;
7683;SDS011;3884;48.616;12.872;2022-08-07T01:08:12;2.73;;;2.20;;
7683;SDS011;3884;48.616;12.872;2022-08-07T01:10:39;2.40;;;2.20;;
7683;SDS011;3884;48.616;12.872;2022-08-07T01:13:07;4.53;;;2.37;;
7683;SDS011;3884;48.616;12.872;2022-08-07T01:15:36;3.10;;;2.63;;
7683;SDS011;3884;48.616;12.872;2022-08-07T01:18:04;4.77;;;2.40;;
7683;SDS011;3884;48.616;12.872;2022-08-07T01:20:32;2.57;;;2.27;;
7683;SDS011;3884;48.616;12.872;2022-08-07T01:23:04;3.13;;;2.63;;
7683;SDS011;3884;48.616;12.872;2022-08-07T01:25:32;2.40;;;2.20;;
7683;SDS011;3884;48.616;12.872;2022-08-07T01:28:00;2.70;;;2.50;;
7683;SDS011;3884;48.616;12.872;2022-08-07T01:30:28;2.40;;;2.20;;
7683;SDS011;3884;48.616;12.872;2022-08-07T01:32:56;2.90;;;2.40;;
7683;SDS011;3884;48.616;12.872;2022-08-07T01:35:23;4.23;;;2.10;;
7683;SDS011;3884;48.616;12.872;2022-08-07T01:37:52;3.13;;;2.00;;
7683;SDS011;3884;48.616;12.872;2022-08-07T01:40:20;2.43;;;2.20;;
7683;SDS011;3884;48.616;12.872;2022-08-07T01:42:55;3.10;;;2.00;;
7683;SDS011;3884;48.616;12.872;2022-08-07T01:45:22;2.40;;;2.20;;
7683;SDS011;3884;48.616;12.872;2022-08-07T01:47:52;2.90;;;2.33;;
7683;SDS011;3884;48.616;12.872;2022-08-07T01:50:20;3.13;;;2.50;;
7683;SDS011;3884;48.616;12.872;2022-08-07T01:52:48;1.90;;;1.80;;
7683;SDS011;3884;48.616;12.872;2022-08-07T01:55:17;3.63;;;1.90;;
7683;SDS011;3884;48.616;12.872;2022-08-07T01:57:49;2.10;;;1.90;;
7683;SDS011;3884;48.616;12.872;2022-08-07T02:00:20;3.83;;;2.20;;
7683;SDS011;3884;48.616;12.872;2022-08-07T02:02:52;2.27;;;1.73;;
7683;SDS011;3884;48.616;12.872;2022-08-07T02:05:29;1.70;;;1.60;;
7683;SDS011;3884;48.616;12.872;2022-08-07T02:08:00;2.60;;;1.87;;
7683;SDS011;3884;48.616;12.872;2022-08-07T02:10:34;2.77;;;1.80;;
7683;SDS011;3884;48.616;12.872;2022-08-07T02:13:06;3.53;;;2.00;;
7683;SDS011;3884;48.616;12.872;2022-08-07T02:15:42;2.83;;;2.60;;
7683;SDS011;3884;48.616;12.872;2022-08-07T02:18:10;2.53;;;2.17;;
7683;SDS011;3884;48.616;12.872;2022-08-07T02:20:37;4.47;;;2.50;;
7683;SDS011;3884;48.616;12.872;2022-08-07T02:23:07;4.77;;;2.40;;
7683;SDS011;3884;48.616;12.872;2022-08-07T02:25:35;2.70;;;2.13;;
7683;SDS011;3884;48.616;12.872;2022-08-07T02:28:03;2.13;;;1.93;;
7683;SDS011;3884;48.616;12.872;2022-08-07T02:30:34;2.37;;;1.83;;
7683;SDS011;3884;48.616;12.872;2022-08-07T02:33:02;2.40;;;2.20;;
7683;SDS011;3884;48.616;12.872;2022-08-07T02:35:30;3.23;;;2.07;;
7683;SDS011;3884;48.616;12.872;2022-08-07T02:38:01;3.50;;;1.97;;
7683;SDS011;3884;48.616;12.872;2022-08-07T02:40:33;2.00;;;1.80;;
7683;SDS011;3884;48.616;12.872;2022-08-07T02:43:03;3.20;;;2.10;;
7683;SDS011;3884;48.616;12.872;2022-08-07T02:45:32;4.67;;;2.00;;
7683;SDS011;3884;48.616;12.872;2022-08-07T02:48:03;2.63;;;2.10;;
7683;SDS011;3884;48.616;12.872;2022-08-07T02:50:31;7.00;;;2.30;;
7683;SDS011;3884;48.616;12.872;2022-08-07T02:53:02;2.53;;;2.00;;
7683;SDS011;3884;48.616;12.872;2022-08-07T02:55:33;7.20;;;2.43;;
7683;SDS011;3884;48.616;12.872;2022-08-07T02:58:05;3.47;;;2.50;;
7683;SDS011;3884;48.616;12.872;2022-08-07T03:00:39;2.67;;;2.20;;
7683;SDS011;3884;48.616;12.872;2022-08-07T03:03:08;2.60;;;1.93;;
7683;SDS011;3884;48.616;12.872;2022-08-07T03:05:40;3.17;;;1.97;;
7683;SDS011;3884;48.616;12.872;2022-08-07T03:08:08;2.73;;;2.10;;
7683;SDS011;3884;48.616;12.872;2022-08-07T03:10:43;2.43;;;2.20;;
7683;SDS011;3884;48.616;12.872;2022-08-07T03:13:12;3.03;;;1.80;;
7683;SDS011;3884;48.616;12.872;2022-08-07T03:15:41;2.73;;;1.80;;
7683;SDS011;3884;48.616;12.872;2022-08-07T03:18:11;2.27;;;1.73;;
7683;SDS011;3884;48.616;12.872;2022-08-07T03:20:39;2.00;;;1.90;;
7683;SDS011;3884;48.616;12.872;2022-08-07T03:23:07;2.67;;;2.23;;
7683;SDS011;3884;48.616;12.872;2022-08-07T03:25:36;1.97;;;1.77;;
7683;SDS011;3884;48.616;12.872;2022-08-07T03:28:06;2.53;;;2.10;;
7683;SDS011;3884;48.616;12.872;2022-08-07T03:30:37;2.07;;;1.70;;
7683;SDS011;3884;48.616;12.872;2022-08-07T03:33:07;2.03;;;1.83;;
7683;SDS011;3884;48.616;12.872;2022-08-07T03:35:37;3.43;;;1.97;;
7683;SDS011;3884;48.616;12.872;2022-08-07T03:38:06;2.80;;;1.90;;
7683;SDS011;3884;48.616;12.872;2022-08-07T03:40:35;3.80;;;2.00;;
7683;SDS011;3884;48.616;12.872;2022-08-07T03:43:08;1.93;;;1.80;;
7683;SDS011;3884;48.616;12.872;2022-08-07T03:45:36;3.00;;;2.03;;
7683;SDS011;3884;48.616;12.872;2022-08-07T03:48:10;5.53;;;1.90;;
7683;SDS011;3884;48.616;12.872;2022-08-07T03:50:37;2.23;;;2.03;;
7683;SDS011;3884;48.616;12.872;2022-08-07T03:53:05;1.90;;;1.70;;
7683;SDS011;3884;48.616;12.872;2022-08-07T03:55:37;4.33;;;2.10;;
7683;SDS011;3884;48.616;12.872;2022-08-07T03:58:05;4.43;;;2.10;;
7683;SDS011;3884;48.616;12.872;2022-08-07T04:00:35;4.27;;;2.00;;
7683;SDS011;3884;48.616;12.872;2022-08-07T04:03:03;2.77;;;1.97;;
7683;SDS011;3884;48.616;12.872;2022-08-07T04:05:37;2.47;;;1.80;;
7683;SDS011;3884;48.616;12.872;2022-08-07T04:08:05;2.57;;;1.90;;
7683;SDS011;3884;48.616;12.872;2022-08-07T04:10:34;2.97;;;1.80;;
7683;SDS011;3884;48.616;12.872;2022-08-07T04:13:01;1.90;;;1.70;;
7683;SDS011;3884;48.616;12.872;2022-08-07T04:15:30;2.70;;;2.03;;
7683;SDS011;3884;48.616;12.872;2022-08-07T04:17:57;2.10;;;1.90;;
7683;SDS011;3884;48.616;12.872;2022-08-07T04:20:25;2.80;;;2.00;;
7683;SDS011;3884;48.616;12.872;2022-08-07T04:22:53;2.23;;;1.80;;
7683;SDS011;3884;48.616;12.872;2022-08-07T04:25:21;4.33;;;1.97;;
7683;SDS011;3884;48.616;12.872;2022-08-07T04:27:48;2.17;;;1.90;;
7683;SDS011;3884;48.616;12.872;2022-08-07T04:30:16;2.30;;;2.00;;
7683;SDS011;3884;48.616;12.872;2022-08-07T04:32:49;5.43;;;1.90;;
7683;SDS011;3884;48.616;12.872;2022-08-07T04:35:18;3.47;;;2.20;;
7683;SDS011;3884;48.616;12.872;2022-08-07T04:37:46;2.30;;;2.10;;
7683;SDS011;3884;48.616;12.872;2022-08-07T04:40:14;4.10;;;2.10;;
7683;SDS011;3884;48.616;12.872;2022-08-07T04:42:42;3.17;;;1.90;;
7683;SDS011;3884;48.616;12.872;2022-08-07T04:45:10;4.57;;;2.30;;
7683;SDS011;3884;48.616;12.872;2022-08-07T04:47:40;2.53;;;2.27;;
7683;SDS011;3884;48.616;12.872;2022-08-07T04:50:16;2.20;;;1.87;;
7683;SDS011;3884;48.616;12.872;2022-08-07T04:53:07;2.20;;;1.90;;
7683;SDS011;3884;48.616;12.872;2022-08-07T04:55:42;3.00;;;1.97;;
7683;SDS011;3884;48.616;12.872;2022-08-07T04:58:18;1.97;;;1.70;;
7683;SDS011;3884;48.616;12.872;2022-08-07T05:00:50;2.20;;;2.00;;
7683;SDS011;3884;48.616;12.872;2022-08-07T05:03:24;2.90;;;1.80;;
7683;SDS011;3884;48.616;12.872;2022-08-07T05:05:58;2.13;;;1.73;;
7683;SDS011;3884;48.616;12.872;2022-08-07T05:08:39;2.53;;;2.10;;
7683;SDS011;3884;48.616;12.872;2022-08-07T05:11:12;2.87;;;1.80;;
7683;SDS011;3884;48.616;12.872;2022-08-07T05:13:46;2.17;;;1.80;;
7683;SDS011;3884;48.616;12.872;2022-08-07T05:16:18;3.23;;;2.10;;
7683;SDS011;3884;48.616;12.872;2022-08-07T05:18:47;2.70;;;1.80;;
7683;SDS011;3884;48.616;12.872;2022-08-07T05:21:20;1.97;;;1.77;;
7683;SDS011;3884;48.616;12.872;2022-08-07T05:23:50;2.00;;;1.80;;
7683;SDS011;3884;48.616;12.872;2022-08-07T05:26:22;1.77;;;1.67;;
7683;SDS011;3884;48.616;12.872;2022-08-07T05:28:58;2.43;;;1.70;;
7683;SDS011;3884;48.616;12.872;2022-08-07T05:31:30;2.07;;;1.87;;
7683;SDS011;3884;48.616;12.872;2022-08-07T05:33:59;2.80;;;2.00;;
7683;SDS011;3884;48.616;12.872;2022-08-07T05:36:28;3.13;;;2.00;;
7683;SDS011;3884;48.616;12.872;2022-08-07T05:38:57;2.10;;;1.90;;
7683;SDS011;3884;48.616;12.872;2022-08-07T05:41:27;2.00;;;1.90;;
7683;SDS011;3884;48.616;12.872;2022-08-07T05:43:55;2.67;;;2.10;;
7683;SDS011;3884;48.616;12.872;2022-08-07T05:46:23;2.53;;;2.20;;
7683;SDS011;3884;48.616;12.872;2022-08-07T05:48:51;2.30;;;2.17;;
7683;SDS011;3884;48.616;12.872;2022-08-07T05:51:19;2.57;;;2.37;;
7683;SDS011;3884;48.616;12.872;2022-08-07T05:53:47;3.53;;;2.20;;
7683;SDS011;3884;48.616;12.872;2022-08-07T05:56:17;3.57;;;1.97;;
7683;SDS011;3884;48.616;12.872;2022-08-07T05:58:50;4.40;;;2.20;;
7683;SDS011;3884;48.616;12.872;2022-08-07T06:01:21;2.20;;;1.90;;
7683;SDS011;3884;48.616;12.872;2022-08-07T06:03:53;2.57;;;2.20;;
7683;SDS011;3884;48.616;12.872;2022-08-07T06:06:20;2.90;;;2.40;;
7683;SDS011;3884;48.616;12.872;2022-08-07T06:08:52;2.40;;;2.20;;
7683;SDS011;3884;48.616;12.872;2022-08-07T06:11:21;3.07;;;2.00;;
7683;SDS011;3884;48.616;12.872;2022-08-07T06:13:48;3.67;;;2.60;;
7683;SDS011;3884;48.616;12.872;2022-08-07T06:16:17;2.87;;;2.17;;
7683;SDS011;3884;48.616;12.872;2022-08-07T06:18:48;2.60;;;2.40;;
7683;SDS011;3884;48.616;12.872;2022-08-07T06:21:15;4.90;;;2.23;;
7683;SDS011;3884;48.616;12.872;2022-08-07T06:23:43;2.53;;;2.13;;
7683;SDS011;3884;48.616;12.872;2022-08-07T06:26:10;2.40;;;2.20;;
7683;SDS011;3884;48.616;12.872;2022-08-07T06:28:50;2.93;;;2.20;;
7683;SDS011;3884;48.616;12.872;2022-08-07T06:31:21;2.60;;;2.03;;
7683;SDS011;3884;48.616;12.872;2022-08-07T06:33:48;2.53;;;2.10;;
7683;SDS011;3884;48.616;12.872;2022-08-07T06:36:16;2.50;;;2.30;;
7683;SDS011;3884;48.616;12.872;2022-08-07T06:38:48;3.53;;;2.20;;
7683;SDS011;3884;48.616;12.872;2022-08-07T06:41:16;2.00;;;1.90;;
7683;SDS011;3884;48.616;12.872;2022-08-07T06:43:46;2.37;;;1.97;;
7683;SDS011;3884;48.616;12.872;2022-08-07T06:46:19;2.13;;;2.00;;
7683;SDS011;3884;48.616;12.872;2022-08-07T06:48:46;4.03;;;2.20;;
7683;SDS011;3884;48.616;12.872;2022-08-07T06:51:19;3.20;;;1.90;;
7683;SDS011;3884;48.616;12.872;2022-08-07T06:53:50;2.50;;;1.87;;
7683;SDS011;3884;48.616;12.872;2022-08-07T06:56:19;2.63;;;2.10;;
7683;SDS011;3884;48.616;12.872;2022-08-07T06:59:04;3.53;;;2.00;;
7683;SDS011;3884;48.616;12.872;2022-08-07T07:01:36;2.10;;;1.90;;
7683;SDS011;3884;48.616;12.872;2022-08-07T07:04:04;2.37;;;2.03;;
7683;SDS011;3884;48.616;12.872;2022-08-07T07:06:32;2.23;;;2.03;;
7683;SDS011;3884;48.616;12.872;2022-08-07T07:09:16;2.20;;;2.00;;
7683;SDS011;3884;48.616;12.872;2022-08-07T07:11:50;2.07;;;1.87;;
7683;SDS011;3884;48.616;12.872;2022-08-07T07:14:25;3.70;;;1.80;;
7683;SDS011;3884;48.616;12.872;2022-08-07T07:16:58;1.87;;;1.60;;
7683;SDS011;3884;48.616;12.872;2022-08-07T07:19:31;2.40;;;1.90;;
7683;SDS011;3884;48.616;12.872;2022-08-07T07:22:00;1.70;;;1.60;;
7683;SDS011;3884;48.616;12.872;2022-08-07T07:24:28;1.90;;;1.80;;
7683;SDS011;3884;48.616;12.872;2022-08-07T07:26:56;2.10;;;1.90;;
7683;SDS011;3884;48.616;12.872;2022-08-07T07:29:26;3.03;;;1.80;;
7683;SDS011;3884;48.616;12.872;2022-08-07T07:31:59;2.30;;;1.80;;
7683;SDS011;3884;48.616;12.872;2022-08-07T07:34:30;1.80;;;1.50;;
7683;SDS011;3884;48.616;12.872;2022-08-07T07:36:59;2.70;;;1.90;;
7683;SDS011;3884;48.616;12.872;2022-08-07T07:39:28;2.03;;;1.70;;
7683;SDS011;3884;48.616;12.872;2022-08-07T07:41:56;2.33;;;1.70;;
7683;SDS011;3884;48.616;12.872;2022-08-07T07:44:25;2.13;;;1.70;;
7683;SDS011;3884;48.616;12.872;2022-08-07T07:46:54;2.27;;;1.60;;
7683;SDS011;3884;48.616;12.872;2022-08-07T07:49:25;3.10;;;1.80;;
7683;SDS011;3884;48.616;12.872;2022-08-07T07:51:54;1.93;;;1.43;;
7683;SDS011;3884;48.616;12.872;2022-08-07T07:54:23;1.77;;;1.40;;
7683;SDS011;3884;48.616;12.872;2022-08-07T07:56:51;1.50;;;1.40;;
7683;SDS011;3884;48.616;12.872;2022-08-07T07:59:20;2.57;;;1.50;;
7683;SDS011;3884;48.616;12.872;2022-08-07T08:01:47;3.77;;;1.53;;
7683;SDS011;3884;48.616;12.872;2022-08-07T08:04:17;2.40;;;1.47;;
7683;SDS011;3884;48.616;12.872;2022-08-07T08:06:46;4.00;;;1.60;;
7683;SDS011;3884;48.616;12.872;2022-08-07T08:09:14;3.33;;;1.60;;
7683;SDS011;3884;48.616;12.872;2022-08-07T08:11:44;1.63;;;1.53;;
7683;SDS011;3884;48.616;12.872;2022-08-07T08:14:11;1.50;;;1.40;;
7683;SDS011;3884;48.616;12.872;2022-08-07T08:16:39;2.33;;;1.50;;
7683;SDS011;3884;48.616;12.872;2022-08-07T08:19:09;1.40;;;1.30;;
7683;SDS011;3884;48.616;12.872;2022-08-07T08:21:39;1.40;;;1.20;;
7683;SDS011;3884;48.616;12.872;2022-08-07T08:24:30;1.60;;;1.50;;
7683;SDS011;3884;48.616;12.872;2022-08-07T08:27:17;2.17;;;1.50;;
7683;SDS011;3884;48.616;12.872;2022-08-07T08:29:47;1.70;;;1.60;;
7683;SDS011;3884;48.616;12.872;2022-08-07T08:32:19;3.77;;;1.47;;
7683;SDS011;3884;48.616;12.872;2022-08-07T08:34:49;2.70;;;1.40;;
7683;SDS011;3884;48.616;12.872;2022-08-07T08:37:18;1.53;;;1.40;;
7683;SDS011;3884;48.616;12.872;2022-08-07T08:39:47;1.40;;;1.30;;
7683;SDS011;3884;48.616;12.872;2022-08-07T08:42:18;1.97;;;1.50;;
7683;SDS011;3884;48.616;12.872;2022-08-07T08:44:52;1.57;;;1.20;;
7683;SDS011;3884;48.616;12.872;2022-08-07T08:47:26;1.73;;;1.40;;
7683;SDS011;3884;48.616;12.872;2022-08-07T08:50:00;1.60;;;1.43;;
7683;SDS011;3884;48.616;12.872;2022-08-07T08:52:34;1.30;;;1.17;;
7683;SDS011;3884;48.616;12.872;2022-08-07T08:55:07;2.53;;;1.40;;
7683;SDS011;3884;48.616;12.872;2022-08-07T08:57:41;1.50;;;1.30;;
7683;SDS011;3884;48.616;12.872;2022-08-07T09:00:14;1.50;;;1.40;;
7683;SDS011;3884;48.616;12.872;2022-08-07T09:02:43;1.43;;;1.30;;
7683;SDS011;3884;48.616;12.872;2022-08-07T09:05:25;4.03;;;1.97;;
7683;SDS011;3884;48.616;12.872;2022-08-07T09:08:03;2.13;;;1.30;;
7683;SDS011;3884;48.616;12.872;2022-08-07T09:10:45;2.43;;;1.40;;
7683;SDS011;3884;48.616;12.872;2022-08-07T09:13:19;3.57;;;1.30;;
7683;SDS011;3884;48.616;12.872;2022-08-07T09:15:55;1.10;;;1.07;;
7683;SDS011;3884;48.616;12.872;2022-08-07T09:18:32;1.93;;;1.50;;
7683;SDS011;3884;48.616;12.872;2022-08-07T09:21:18;1.70;;;1.60;;
7683;SDS011;3884;48.616;12.872;2022-08-07T09:23:59;1.43;;;1.33;;
7683;SDS011;3884;48.616;12.872;2022-08-07T09:26:37;1.50;;;1.40;;
7683;SDS011;3884;48.616;12.872;2022-08-07T09:29:12;2.83;;;1.27;;
7683;SDS011;3884;48.616;12.872;2022-08-07T09:31:50;1.30;;;1.20;;
7683;SDS011;3884;48.616;12.872;2022-08-07T09:34:25;1.87;;;1.40;;
7683;SDS011;3884;48.616;12.872;2022-08-07T09:36:58;2.90;;;1.50;;
7683;SDS011;3884;48.616;12.872;2022-08-07T09:42:24;1.90;;;1.27;;
7683;SDS011;3884;48.616;12.872;2022-08-07T09:45:06;1.70;;;1.40;;
7683;SDS011;3884;48.616;12.872;2022-08-07T09:47:38;1.37;;;1.23;;
7683;SDS011;3884;48.616;12.872;2022-08-07T09:50:13;1.47;;;1.30;;
7683;SDS011;3884;48.616;12.872;2022-08-07T09:52:50;1.93;;;1.40;;
7683;SDS011;3884;48.616;12.872;2022-08-07T09:55:25;3.40;;;1.60;;
7683;SDS011;3884;48.616;12.872;2022-08-07T10:01:07;3.13;;;1.63;;
7683;SDS011;3884;48.616;12.872;2022-08-07T10:04:05;2.20;;;1.50;;
7683;SDS011;3884;48.616;12.872;2022-08-07T10:06:57;1.40;;;1.30;;
7683;SDS011;3884;48.616;12.872;2022-08-07T10:09:36;5.37;;;1.73;;
7683;SDS011;3884;48.616;12.872;2022-08-07T10:12:13;4.13;;;1.80;;
7683;SDS011;3884;48.616;12.872;2022-08-07T10:14:57;3.10;;;1.60;;
7683;SDS011;3884;48.616;12.872;2022-08-07T10:17:41;2.60;;;1.57;;
7683;SDS011;3884;48.616;12.872;2022-08-07T10:20:27;2.67;;;1.60;;
7683;SDS011;3884;48.616;12.872;2022-08-07T10:23:12;1.70;;;1.60;;
7683;SDS011;3884;48.616;12.872;2022-08-07T10:26:00;2.40;;;1.80;;
7683;SDS011;3884;48.616;12.872;2022-08-07T10:28:49;2.30;;;2.10;;
7683;SDS011;3884;48.616;12.872;2022-08-07T10:31:30;1.80;;;1.60;;
7683;SDS011;3884;48.616;12.872;2022-08-07T10:34:26;2.43;;;1.90;;
7683;SDS011;3884;48.616;12.872;2022-08-07T10:39:57;2.90;;;2.10;;
7683;SDS011;3884;48.616;12.872;2022-08-07T10:42:31;2.27;;;1.70;;
7683;SDS011;3884;48.616;12.872;2022-08-07T10:45:05;4.27;;;2.00;;
7683;SDS011;3884;48.616;12.872;2022-08-07T10:47:44;3.13;;;1.90;;
7683;SDS011;3884;48.616;12.872;2022-08-07T10:50:20;2.43;;;2.00;;
7683;SDS011;3884;48.616;12.872;2022-08-07T10:52:54;2.47;;;1.77;;
7683;SDS011;3884;48.616;12.872;2022-08-07T10:55:26;2.37;;;2.17;;
7683;SDS011;3884;48.616;12.872;2022-08-07T10:58:02;3.30;;;2.37;;
7683;SDS011;3884;48.616;12.872;2022-08-07T11:00:42;2.03;;;1.90;;
7683;SDS011;3884;48.616;12.872;2022-08-07T11:03:18;2.00;;;1.90;;
7683;SDS011;3884;48.616;12.872;2022-08-07T11:06:01;3.10;;;2.10;;
7683;SDS011;3884;48.616;12.872;2022-08-07T11:08:35;2.33;;;2.07;;
7683;SDS011;3884;48.616;12.872;2022-08-07T11:11:09;3.40;;;2.00;;
7683;SDS011;3884;48.616;12.872;2022-08-07T11:13:44;2.10;;;1.90;;
7683;SDS011;3884;48.616;12.872;2022-08-07T11:16:15;3.80;;;2.30;;
7683;SDS011;3884;48.616;12.872;2022-08-07T11:18:47;3.70;;;1.97;;
7683;SDS011;3884;48.616;12.872;2022-08-07T11:21:25;2.30;;;2.07;;
7683;SDS011;3884;48.616;12.872;2022-08-07T11:23:58;2.20;;;2.00;;
7683;SDS011;3884;48.616;12.872;2022-08-07T11:26:32;3.60;;;2.23;;
7683;SDS011;3884;48.616;12.872;2022-08-07T11:29:07;3.30;;;2.10;;
7683;SDS011;3884;48.616;12.872;2022-08-07T11:31:40;3.30;;;2.43;;
7683;SDS011;3884;48.616;12.872;2022-08-07T11:34:16;2.90;;;2.50;;
7683;SDS011;3884;48.616;12.872;2022-08-07T11:36:52;2.63;;;2.40;;
7683;SDS011;3884;48.616;12.872;2022-08-07T11:39:28;2.90;;;2.63;;
7683;SDS011;3884;48.616;12.872;2022-08-07T11:42:09;2.83;;;2.53;;
7683;SDS011;3884;48.616;12.872;2022-08-07T11:44:41;3.43;;;2.40;;
7683;SDS011;3884;48.616;12.872;2022-08-07T11:47:20;2.37;;;2.17;;
7683;SDS011;3884;48.616;12.872;2022-08-07T11:49:56;3.87;;;2.30;;
7683;SDS011;3884;48.616;12.872;2022-08-07T11:52:50;3.50;;;2.40;;
7683;SDS011;3884;48.616;12.872;2022-08-07T11:55:44;3.60;;;2.20;;
7683;SDS011;3884;48.616;12.872;2022-08-07T11:58:29;4.87;;;2.20;;
7683;SDS011;3884;48.616;12.872;2022-08-07T12:01:08;2.80;;;2.10;;
7683;SDS011;3884;48.616;12.872;2022-08-07T12:03:52;2.90;;;2.30;;
7683;SDS011;3884;48.616;12.872;2022-08-07T12:06:33;2.40;;;2.20;;
7683;SDS011;3884;48.616;12.872;2022-08-07T12:09:12;2.40;;;2.20;;
7683;SDS011;3884;48.616;12.872;2022-08-07T12:11:45;2.40;;;2.20;;
7683;SDS011;3884;48.616;12.872;2022-08-07T12:14:18;2.77;;;2.27;;
7683;SDS011;3884;48.616;12.872;2022-08-07T12:16:47;3.13;;;2.40;;
7683;SDS011;3884;48.616;12.872;2022-08-07T12:19:20;2.40;;;2.20;;
7683;SDS011;3884;48.616;12.872;2022-08-07T12:21:58;4.53;;;2.80;;
7683;SDS011;3884;48.616;12.872;2022-08-07T12:24:32;5.17;;;2.33;;
7683;SDS011;3884;48.616;12.872;2022-08-07T12:27:04;2.13;;;1.93;;
7683;SDS011;3884;48.616;12.872;2022-08-07T12:29:37;2.87;;;2.10;;
7683;SDS011;3884;48.616;12.872;2022-08-07T12:32:13;2.53;;;2.33;;
7683;SDS011;3884;48.616;12.872;2022-08-07T12:34:44;3.57;;;2.10;;
7683;SDS011;3884;48.616;12.872;2022-08-07T12:37:12;2.13;;;1.93;;
7683;SDS011;3884;48.616;12.872;2022-08-07T12:39:45;2.80;;;2.13;;
7683;SDS011;3884;48.616;12.872;2022-08-07T12:42:14;2.17;;;1.97;;
7683;SDS011;3884;48.616;12.872;2022-08-07T12:44:46;3.07;;;2.23;;
7683;SDS011;3884;48.616;12.872;2022-08-07T12:47:17;2.50;;;2.17;;
7683;SDS011;3884;48.616;12.872;2022-08-07T12:49:51;2.93;;;2.20;;
7683;SDS011;3884;48.616;12.872;2022-08-07T12:52:26;3.17;;;2.10;;
7683;SDS011;3884;48.616;12.872;2022-08-07T12:55:03;2.40;;;2.20;;
7683;SDS011;3884;48.616;12.872;2022-08-07T12:57:36;2.63;;;2.23;;
7683;SDS011;3884;48.616;12.872;2022-08-07T13:00:05;2.90;;;2.10;;
7683;SDS011;3884;48.616;12.872;2022-08-07T13:02:43;2.23;;;2.03;;
7683;SDS011;3884;48.616;12.872;2022-08-07T13:05:29;2.80;;;2.40;;
7683;SDS011;3884;48.616;12.872;2022-08-07T13:08:16;2.37;;;2.17;;
7683;SDS011;3884;48.616;12.872;2022-08-07T13:11:12;2.10;;;1.90;;
7683;SDS011;3884;48.616;12.872;2022-08-07T13:14:00;2.10;;;2.00;;
7683;SDS011;3884;48.616;12.872;2022-08-07T13:16:34;2.43;;;2.00;;
7683;SDS011;3884;48.616;12.872;2022-08-07T13:19:11;2.40;;;2.10;;
7683;SDS011;3884;48.616;12.872;2022-08-07T13:21:48;2.93;;;2.07;;
7683;SDS011;3884;48.616;12.872;2022-08-07T13:24:22;2.50;;;2.30;;
7683;SDS011;3884;48.616;12.872;2022-08-07T13:26:56;2.10;;;2.00;;
7683;SDS011;3884;48.616;12.872;2022-08-07T13:29:35;2.73;;;2.00;;
7683;SDS011;3884;48.616;12.872;2022-08-07T13:32:08;3.40;;;2.37;;
7683;SDS011;3884;48.616;12.872;2022-08-07T13:34:42;2.80;;;2.10;;
7683;SDS011;3884;48.616;12.872;2022-08-07T13:37:15;2.17;;;1.97;;
7683;SDS011;3884;48.616;12.872;2022-08-07T13:39:49;2.80;;;1.90;;
7683;SDS011;3884;48.616;12.872;2022-08-07T13:42:29;2.43;;;2.10;;
7683;SDS011;3884;48.616;12.872;2022-08-07T13:44:58;3.00;;;2.00;;
7683;SDS011;3884;48.616;12.872;2022-08-07T13:47:31;2.57;;;2.10;;
7683;SDS011;3884;48.616;12.872;2022-08-07T13:50:01;2.33;;;2.10;;
7683;SDS011;3884;48.616;12.872;2022-08-07T13:52:29;2.20;;;2.00;;
7683;SDS011;3884;48.616;12.872;2022-08-07T13:54:56;3.47;;;1.80;;
7683;SDS011;3884;48.616;12.872;2022-08-07T13:57:31;2.17;;;1.97;;
7683;SDS011;3884;48.616;12.872;2022-08-07T13:59:59;2.00;;;1.80;;
7683;SDS011;3884;48.616;12.872;2022-08-07T14:02:37;2.07;;;1.87;;
7683;SDS011;3884;48.616;12.872;2022-08-07T14:05:08;2.20;;;2.00;;
7683;SDS011;3884;48.616;12.872;2022-08-07T14:07:38;2.10;;;1.90;;
7683;SDS011;3884;48.616;12.872;2022-08-07T14:10:10;2.17;;;2.00;;
7683;SDS011;3884;48.616;12.872;2022-08-07T14:12:53;2.60;;;2.40;;
7683;SDS011;3884;48.616;12.872;2022-08-07T14:15:27;2.33;;;1.93;;
7683;SDS011;3884;48.616;12.872;2022-08-07T14:17:56;2.20;;;2.00;;
7683;SDS011;3884;48.616;12.872;2022-08-07T14:20:28;2.13;;;1.93;;
7683;SDS011;3884;48.616;12.872;2022-08-07T14:22:59;2.10;;;1.90;;
7683;SDS011;3884;48.616;12.872;2022-08-07T14:25:31;2.40;;;2.20;;
7683;SDS011;3884;48.616;12.872;2022-08-07T14:28:02;3.40;;;2.00;;
7683;SDS011;3884;48.616;12.872;2022-08-07T14:30:31;3.40;;;1.93;;
7683;SDS011;3884;48.616;12.872;2022-08-07T14:32:59;2.00;;;1.90;;
7683;SDS011;3884;48.616;12.872;2022-08-07T14:35:29;1.97;;;1.77;;
7683;SDS011;3884;48.616;12.872;2022-08-07T14:37:57;3.20;;;1.93;;
7683;SDS011;3884;48.616;12.872;2022-08-07T14:40:26;2.27;;;1.90;;
7683;SDS011;3884;48.616;12.872;2022-08-07T14:42:55;2.13;;;1.90;;
7683;SDS011;3884;48.616;12.872;2022-08-07T14:45:28;2.43;;;1.77;;
7683;SDS011;3884;48.616;12.872;2022-08-07T14:47:56;2.30;;;2.00;;
7683;SDS011;3884;48.616;12.872;2022-08-07T14:50:26;2.33;;;2.10;;
7683;SDS011;3884;48.616;12.872;2022-08-07T14:52:54;2.27;;;1.90;;
7683;SDS011;3884;48.616;12.872;2022-08-07T14:55:23;2.20;;;1.97;;
7683;SDS011;3884;48.616;12.872;2022-08-07T14:57:55;1.80;;;1.70;;
7683;SDS011;3884;48.616;12.872;2022-08-07T15:00:25;2.43;;;1.97;;
7683;SDS011;3884;48.616;12.872;2022-08-07T15:02:55;2.20;;;1.80;;
7683;SDS011;3884;48.616;12.872;2022-08-07T15:05:24;2.20;;;2.00;;
7683;SDS011;3884;48.616;12.872;2022-08-07T15:07:53;4.57;;;1.90;;
7683;SDS011;3884;48.616;12.872;2022-08-07T15:10:22;2.07;;;1.87;;
7683;SDS011;3884;48.616;12.872;2022-08-07T15:12:51;1.90;;;1.77;;
7683;SDS011;3884;48.616;12.872;2022-08-07T15:15:22;2.30;;;2.10;;
7683;SDS011;3884;48.616;12.872;2022-08-07T15:17:57;2.53;;;1.90;;
7683;SDS011;3884;48.616;12.872;2022-08-07T15:20:30;2.37;;;2.00;;
7683;SDS011;3884;48.616;12.872;2022-08-07T15:23:01;2.00;;;1.80;;
7683;SDS011;3884;48.616;12.872;2022-08-07T15:25:31;2.00;;;1.83;;
7683;SDS011;3884;48.616;12.872;2022-08-07T15:28:03;2.30;;;2.10;;
7683;SDS011;3884;48.616;12.872;2022-08-07T15:30:32;2.40;;;2.00;;
7683;SDS011;3884;48.616;12.872;2022-08-07T15:33:02;2.80;;;2.00;;
7683;SDS011;3884;48.616;12.872;2022-08-07T15:35:31;2.00;;;1.80;;
7683;SDS011;3884;48.616;12.872;2022-08-07T15:38:01;2.90;;;1.87;;
7683;SDS011;3884;48.616;12.872;2022-08-07T15:40:32;2.23;;;1.83;;